createdAt,value
2019-01-17T00:01:27.896Z,3.81
2019-01-17T00:04:20.448Z,3.84
2019-01-17T00:07:08.695Z,3.76
2019-01-17T00:09:52.216Z,3.78
2019-01-17T00:12:48.460Z,3.74
2019-01-17T00:15:37.832Z,3.77
2019-01-17T00:18:27.929Z,3.86
2019-01-17T00:21:22.824Z,3.93
2019-01-17T00:24:02.742Z,3.93
2019-01-17T00:27:07.919Z,4.00
2019-01-17T00:30:00.297Z,4.01
2019-01-17T00:32:44.432Z,4.04
2019-01-17T00:35:44.325Z,4.06
2019-01-17T00:38:38.817Z,4.10
2019-01-17T00:41:17.438Z,4.21
2019-01-17T00:44:07.017Z,4.30
2019-01-17T00:47:11.654Z,4.40
2019-01-17T00:49:59.684Z,4.43
2019-01-17T00:52:49.165Z,4.47
2019-01-17T00:55:38.639Z,4.56
2019-01-17T00:58:27.469Z,4.64
2019-01-17T01:01:20.042Z,4.70
2019-01-17T01:04:15.516Z,4.73
2019-01-17T01:07:11.387Z,4.75
2019-01-17T01:10:07.219Z,4.80
2019-01-17T01:12:56.893Z,4.87
2019-01-17T01:19:20.329Z,4.97
2019-01-17T01:22:28.136Z,4.93
2019-01-17T01:25:23.859Z,4.86
2019-01-17T01:28:12.917Z,4.86
2019-01-17T01:31:02.292Z,4.87
2019-01-17T01:33:50.537Z,4.82
2019-01-17T01:36:42.474Z,4.82
2019-01-17T01:39:33.488Z,4.79
2019-01-17T01:42:25.036Z,4.72
2019-01-17T01:45:05.573Z,4.66
2019-01-17T01:48:01.290Z,4.66
2019-01-17T01:50:59.572Z,4.55
2019-01-17T01:53:31.192Z,4.45
2019-01-17T01:56:01.664Z,4.43
2019-01-17T01:58:32.882Z,4.35
2019-01-17T02:01:03.469Z,4.20
2019-01-17T02:03:34.017Z,4.13
2019-01-17T02:06:04.899Z,4.00
2019-01-17T02:08:35.695Z,3.82
2019-01-17T02:11:06.360Z,3.76
2019-01-17T02:13:37.561Z,3.72
2019-01-17T02:16:08.193Z,3.74
2019-01-17T02:18:38.852Z,3.72
2019-01-17T02:21:09.681Z,3.66
2019-01-17T02:23:41.733Z,3.62
2019-01-17T02:26:12.442Z,3.62
2019-01-17T02:28:44.369Z,3.59
2019-01-17T02:31:14.902Z,3.58
2019-01-17T02:33:45.862Z,3.51
2019-01-17T02:36:16.743Z,3.47
2019-01-17T02:38:47.383Z,3.36
2019-01-17T02:41:17.891Z,3.29
2019-01-17T02:43:48.995Z,3.31
2019-01-17T02:46:20.641Z,3.33
2019-01-17T02:48:51.413Z,3.28
2019-01-17T02:51:23.441Z,3.31
2019-01-17T02:53:54.072Z,3.30
2019-01-17T02:56:24.774Z,3.25
2019-01-17T02:58:55.511Z,3.29
2019-01-17T03:01:26.237Z,3.26
2019-01-17T03:03:56.772Z,3.25
2019-01-17T03:06:27.315Z,3.22
2019-01-17T03:08:57.835Z,3.16
2019-01-17T03:11:28.736Z,3.14
2019-01-17T03:13:59.165Z,3.15
2019-01-17T03:16:29.894Z,3.11
2019-01-17T03:19:01.672Z,3.08
2019-01-17T03:21:32.140Z,2.99
2019-01-17T03:24:02.733Z,2.91
2019-01-17T03:26:34.222Z,2.91
2019-01-17T03:29:05.062Z,2.93
2019-01-17T03:31:35.681Z,2.94
2019-01-17T03:34:07.729Z,2.94
2019-01-17T03:36:39.578Z,2.98
2019-01-17T03:39:12.698Z,3.04
2019-01-17T03:41:43.168Z,3.03
2019-01-17T03:44:13.952Z,3.10
2019-01-17T03:46:45.657Z,3.15
2019-01-17T03:49:17.681Z,3.07
2019-01-17T03:51:48.544Z,2.99
2019-01-17T03:54:19.833Z,2.92
2019-01-17T03:56:50.434Z,2.88
2019-01-17T03:59:20.958Z,2.87
2019-01-17T04:01:51.439Z,2.85
2019-01-17T04:04:21.821Z,2.77
2019-01-17T04:06:52.667Z,2.76
2019-01-17T04:09:23.535Z,2.76
2019-01-17T04:11:54.194Z,2.81
2019-01-17T04:14:24.710Z,2.91
2019-01-17T04:16:55.543Z,2.89
2019-01-17T04:19:28.487Z,2.87
2019-01-17T04:21:59.936Z,2.77
2019-01-17T04:24:30.891Z,2.79
2019-01-17T04:27:01.514Z,2.77
2019-01-17T04:29:33.402Z,2.76
2019-01-17T04:32:04.444Z,2.73
2019-01-17T04:34:35.354Z,2.65
2019-01-17T04:37:06.275Z,2.58
2019-01-17T04:39:37.164Z,2.48
2019-01-17T04:42:07.842Z,2.42
2019-01-17T04:44:38.750Z,2.46
2019-01-17T04:47:11.112Z,2.49
2019-01-17T04:49:43.103Z,2.46
2019-01-17T04:52:13.555Z,2.48
2019-01-17T04:54:44.539Z,2.52
2019-01-17T04:57:14.993Z,2.60
2019-01-17T04:59:45.572Z,2.64
2019-01-17T05:02:17.402Z,2.59
2019-01-17T05:04:48.347Z,2.57
2019-01-17T05:07:19.030Z,2.53
2019-01-17T05:09:49.647Z,2.52
2019-01-17T05:12:20.611Z,2.51
2019-01-17T05:14:51.391Z,2.58
2019-01-17T05:17:23.403Z,2.55
2019-01-17T05:19:54.067Z,2.54
2019-01-17T05:22:24.671Z,2.55
2019-01-17T05:24:55.545Z,2.49
2019-01-17T05:27:26.053Z,2.54
2019-01-17T05:35:43.907Z,2.70
2019-01-17T05:38:14.740Z,2.69
2019-01-17T05:40:45.348Z,2.71
2019-01-17T05:43:16.080Z,2.71
2019-01-17T05:45:48.035Z,2.80
2019-01-17T05:48:19.021Z,2.83
2019-01-17T05:50:49.889Z,2.85
2019-01-17T05:53:20.452Z,2.85
2019-01-17T05:55:51.570Z,2.90
2019-01-17T05:58:22.297Z,2.98
2019-01-17T06:00:53.918Z,3.03
2019-01-17T06:03:24.625Z,3.12
2019-01-17T06:05:55.354Z,3.19
2019-01-17T06:08:25.942Z,3.24
2019-01-17T06:10:56.634Z,3.29
2019-01-17T06:13:27.440Z,3.33
2019-01-17T06:15:58.754Z,3.43
2019-01-17T06:18:29.585Z,3.50
2019-01-17T06:21:00.218Z,3.58
2019-01-17T06:23:30.896Z,3.74
2019-01-17T06:26:01.666Z,3.88
2019-01-17T06:28:32.457Z,4.04
2019-01-17T06:31:03.287Z,4.15
2019-01-17T06:33:34.068Z,4.38
2019-01-17T06:36:05.231Z,4.56
2019-01-17T06:38:35.883Z,4.74
2019-01-17T06:41:06.544Z,4.86
2019-01-17T06:43:38.805Z,4.93
2019-01-17T06:46:10.657Z,5.03
2019-01-17T06:48:41.176Z,5.14
2019-01-17T06:51:11.844Z,5.30
2019-01-17T06:53:42.487Z,5.40
2019-01-17T06:56:13.118Z,5.47
2019-01-17T06:58:43.752Z,5.50
2019-01-17T07:01:14.517Z,5.45
2019-01-17T07:03:45.421Z,5.39
2019-01-17T07:06:16.244Z,5.44
2019-01-17T07:08:48.255Z,5.48
2019-01-17T07:11:20.647Z,5.50
2019-01-17T07:13:52.596Z,5.51
2019-01-17T07:16:23.579Z,5.56
2019-01-17T07:18:54.202Z,5.62
2019-01-17T07:21:24.707Z,5.74
2019-01-17T07:23:55.616Z,5.84
2019-01-17T07:26:26.306Z,5.89
2019-01-17T07:28:56.888Z,6.00
2019-01-17T07:31:27.581Z,6.08
2019-01-17T07:33:58.256Z,6.21
2019-01-17T07:36:29.259Z,6.29
2019-01-17T07:38:59.937Z,6.35
2019-01-17T07:41:30.809Z,6.41
2019-01-17T07:44:01.493Z,6.50
2019-01-17T07:46:33.939Z,6.50
2019-01-17T07:49:04.472Z,6.58
2019-01-17T07:51:35.010Z,6.62
2019-01-17T07:54:05.684Z,6.70
2019-01-17T07:56:36.845Z,6.77
2019-01-17T07:59:09.750Z,6.88
2019-01-17T08:01:40.329Z,6.90
2019-01-17T08:04:12.513Z,7.01
2019-01-17T08:06:43.106Z,7.03
2019-01-17T08:09:13.779Z,6.95
2019-01-17T08:11:44.344Z,7.06
2019-01-17T08:14:14.868Z,6.99
2019-01-17T08:16:45.370Z,7.00
2019-01-17T08:19:16.209Z,6.99
2019-01-17T08:21:46.659Z,7.02
2019-01-17T08:24:18.336Z,6.99
2019-01-17T08:26:48.985Z,6.94
2019-01-17T08:29:19.526Z,6.84
2019-01-17T08:31:49.874Z,6.80
2019-01-17T08:34:21.427Z,6.93
2019-01-17T08:36:51.969Z,6.95
2019-01-17T08:39:22.566Z,7.03
2019-01-17T08:41:54.281Z,7.00
2019-01-17T08:44:24.651Z,7.06
2019-01-17T08:46:55.536Z,7.17
2019-01-17T08:49:26.096Z,7.16
2019-01-17T08:51:56.513Z,7.18
2019-01-17T08:54:26.850Z,7.22
2019-01-17T08:56:57.415Z,7.22
2019-01-17T08:59:28.222Z,7.10
2019-01-17T09:01:58.565Z,7.11
2019-01-17T09:04:29.337Z,6.95
2019-01-17T09:06:59.758Z,6.99
2019-01-17T09:09:30.117Z,6.75
2019-01-17T09:12:00.662Z,6.59
2019-01-17T09:14:31.378Z,6.78
2019-01-17T09:17:02.005Z,6.84
2019-01-17T09:19:32.659Z,6.94
2019-01-17T09:22:02.971Z,7.03
2019-01-17T09:24:33.542Z,7.03
2019-01-17T09:27:04.002Z,7.00
2019-01-17T09:29:34.309Z,6.94
2019-01-17T09:32:05.140Z,7.00
2019-01-17T09:34:36.659Z,7.10
2019-01-17T09:37:07.300Z,7.19
2019-01-17T09:39:37.882Z,7.25
2019-01-17T09:42:08.676Z,7.31
2019-01-17T09:44:40.080Z,7.14
2019-01-17T09:47:10.604Z,7.13
2019-01-17T09:49:41.258Z,7.07
2019-01-17T09:52:11.569Z,7.21
2019-01-17T09:54:43.705Z,7.31
2019-01-17T09:57:14.098Z,7.34
2019-01-17T09:59:45.856Z,7.38
2019-01-17T10:02:16.401Z,7.37
2019-01-17T10:04:46.979Z,7.40
2019-01-17T10:07:17.823Z,7.37
2019-01-17T10:09:48.505Z,7.44
2019-01-17T10:12:19.107Z,7.41
2019-01-17T10:14:49.440Z,7.45
2019-01-17T10:17:29.355Z,7.48
2019-01-17T10:20:34.522Z,7.42
2019-01-17T10:23:28.411Z,7.32
2019-01-17T10:26:11.729Z,7.42
2019-01-17T10:29:20.961Z,7.27
2019-01-17T10:32:15.660Z,7.37
2019-01-17T10:35:40.671Z,7.46
2019-01-17T10:38:29.626Z,7.50
2019-01-17T10:41:42.966Z,7.55
2019-01-17T10:44:37.051Z,7.60
2019-01-17T10:47:50.998Z,7.70
2019-01-17T10:51:00.947Z,7.62
2019-01-17T10:53:54.827Z,7.67
2019-01-17T10:57:06.298Z,7.71
2019-01-17T11:00:18.663Z,7.77
2019-01-17T11:03:29.007Z,7.83
2019-01-17T11:06:17.241Z,7.81
2019-01-17T11:09:08.753Z,7.88
2019-01-17T11:12:28.542Z,7.96
2019-01-17T11:15:35.016Z,7.92
2019-01-17T11:18:37.049Z,7.94
2019-01-17T11:21:50.318Z,7.90
2019-01-17T11:25:05.614Z,7.95
2019-01-17T11:28:09.329Z,7.95
2019-01-17T11:31:20.295Z,7.97
2019-01-17T11:34:35.259Z,7.99
2019-01-17T11:37:46.705Z,8.01
2019-01-17T11:40:40.355Z,7.97
2019-01-17T11:44:00.644Z,8.07
2019-01-17T11:47:20.393Z,8.17
2019-01-17T11:50:27.346Z,8.23
2019-01-17T11:53:49.330Z,8.25
2019-01-17T11:57:06.840Z,8.22
2019-01-17T12:00:19.785Z,8.25
2019-01-17T12:03:24.156Z,8.19
2019-01-17T12:05:55.612Z,8.14
2019-01-17T12:08:26.020Z,8.24
2019-01-17T12:10:56.549Z,8.33
2019-01-17T12:13:26.815Z,8.41
2019-01-17T12:15:57.115Z,8.48
2019-01-17T12:18:27.598Z,8.25
2019-01-17T12:20:58.219Z,8.23
2019-01-17T12:23:28.979Z,8.22
2019-01-17T12:25:59.582Z,8.29
2019-01-17T12:28:30.423Z,8.34
2019-01-17T12:31:00.731Z,8.40
2019-01-17T12:33:31.303Z,8.45
2019-01-17T12:36:01.669Z,8.48
2019-01-17T12:38:32.154Z,8.44
2019-01-17T12:41:02.689Z,8.47
2019-01-17T12:43:33.024Z,8.45
2019-01-17T12:46:03.502Z,8.45
2019-01-17T12:48:34.055Z,8.46
2019-01-17T12:51:06.503Z,8.48
2019-01-17T12:53:36.880Z,8.40
2019-01-17T12:56:08.843Z,8.29
2019-01-17T12:58:39.548Z,8.39
2019-01-17T13:01:10.045Z,8.45
2019-01-17T13:03:40.519Z,8.41
2019-01-17T13:06:10.892Z,8.46
2019-01-17T13:08:41.334Z,8.38
2019-01-17T13:11:11.873Z,8.46
2019-01-17T13:13:43.356Z,8.54
2019-01-17T13:16:13.723Z,8.43
2019-01-17T13:18:44.321Z,8.45
2019-01-17T13:21:15.141Z,8.52
2019-01-17T13:23:45.707Z,8.57
2019-01-17T13:26:16.387Z,8.58
2019-01-17T13:29:40.352Z,8.60
2019-01-17T13:32:11.063Z,8.43
2019-01-17T13:34:41.462Z,8.43
2019-01-17T13:37:11.959Z,8.34
2019-01-17T13:39:42.628Z,8.35
2019-01-17T13:42:13.115Z,8.26
2019-01-17T13:44:43.530Z,8.30
2019-01-17T13:47:14.272Z,8.02
2019-01-17T13:50:04.995Z,8.07
2019-01-17T13:52:35.702Z,7.98
2019-01-17T13:55:07.015Z,8.00
2019-01-17T13:57:37.928Z,8.06
2019-01-17T14:00:12.991Z,8.01
2019-01-17T14:02:43.796Z,7.87
2019-01-17T14:05:14.716Z,7.61
2019-01-17T14:07:47.062Z,7.50
2019-01-17T14:10:17.853Z,7.50
2019-01-17T14:12:48.308Z,7.48
2019-01-17T14:15:26.786Z,7.54
2019-01-17T14:17:56.993Z,7.43
2019-01-17T14:20:27.501Z,7.40
2019-01-17T14:22:58.055Z,7.42
2019-01-17T14:25:28.450Z,7.42
2019-01-17T14:27:58.819Z,7.44
2019-01-17T14:30:31.056Z,7.38
2019-01-17T14:33:01.622Z,7.23
2019-01-17T14:35:32.139Z,7.14
2019-01-17T14:38:02.694Z,7.16
2019-01-17T14:40:33.070Z,7.07
2019-01-17T14:43:03.516Z,7.08
2019-01-17T14:45:33.909Z,7.02
2019-01-17T14:48:04.069Z,6.88
2019-01-17T14:50:34.507Z,6.89
2019-01-17T14:53:05.420Z,6.87
2019-01-17T14:55:35.834Z,6.86
2019-01-17T14:58:06.635Z,6.71
2019-01-17T15:00:37.337Z,6.65
2019-01-17T15:03:07.973Z,6.63
2019-01-17T15:05:38.489Z,6.66
2019-01-17T15:08:09.049Z,6.58
2019-01-17T15:11:02.785Z,6.57
2019-01-17T15:13:33.316Z,6.52
2019-01-17T15:16:06.868Z,6.42
2019-01-17T15:18:37.512Z,6.33
2019-01-17T15:21:08.254Z,6.37
2019-01-17T15:23:38.874Z,6.28
2019-01-17T15:26:09.967Z,6.14
2019-01-17T15:28:40.799Z,6.20
2019-01-17T15:31:11.361Z,6.21
2019-01-17T15:33:41.832Z,6.20
2019-01-17T15:36:12.865Z,6.15
2019-01-17T15:38:43.280Z,6.13
2019-01-17T15:41:13.792Z,6.05
2019-01-17T15:43:44.606Z,6.05
2019-01-17T15:46:15.217Z,6.10
2019-01-17T15:48:45.846Z,6.14
2019-01-17T15:51:17.249Z,6.16
2019-01-17T15:53:47.885Z,6.17
2019-01-17T15:56:18.212Z,6.23
2019-01-17T15:58:49.910Z,6.21
2019-01-17T16:01:20.547Z,6.26
2019-01-17T16:03:51.538Z,6.23
2019-01-17T16:06:22.297Z,6.23
2019-01-17T16:08:52.980Z,6.17
2019-01-17T16:11:25.174Z,6.13
2019-01-17T16:13:55.683Z,6.08
2019-01-17T16:16:26.248Z,6.06
2019-01-17T16:18:56.929Z,6.03
2019-01-17T16:21:31.141Z,6.05
2019-01-17T16:24:01.806Z,6.03
2019-01-17T16:26:32.409Z,5.92
2019-01-17T16:29:03.508Z,5.89
2019-01-17T16:31:34.112Z,5.83
2019-01-17T16:34:04.830Z,5.79
2019-01-17T16:36:35.667Z,5.72
2019-01-17T16:39:09.432Z,5.67
2019-01-17T16:41:40.133Z,5.44
2019-01-17T16:44:12.122Z,5.50
2019-01-17T16:46:44.347Z,5.42
2019-01-17T16:49:14.985Z,5.35
2019-01-17T16:51:46.847Z,5.28
2019-01-17T16:54:17.691Z,5.27
2019-01-17T16:56:48.414Z,5.30
2019-01-17T16:59:19.403Z,5.35
2019-01-17T17:01:50.150Z,5.32
2019-01-17T17:04:20.878Z,5.30
2019-01-17T17:06:51.634Z,5.26
2019-01-17T17:09:23.342Z,5.23
2019-01-17T17:11:53.957Z,5.15
2019-01-17T17:14:24.838Z,5.15
2019-01-17T17:16:55.411Z,5.19
2019-01-17T17:19:26.773Z,5.18
2019-01-17T17:21:57.595Z,5.07
2019-01-17T17:24:28.292Z,5.10
2019-01-17T17:26:58.871Z,5.14
2019-01-17T17:29:29.719Z,5.08
2019-01-17T17:32:00.527Z,5.03
2019-01-17T17:34:31.514Z,5.06
2019-01-17T17:37:02.305Z,5.00
2019-01-17T17:39:33.416Z,5.02
2019-01-17T17:42:04.004Z,5.00
2019-01-17T17:44:35.755Z,4.93
2019-01-17T17:47:08.955Z,4.95
2019-01-17T17:49:40.888Z,4.93
2019-01-17T17:52:12.398Z,4.84
2019-01-17T17:54:43.560Z,4.85
2019-01-17T17:57:14.329Z,4.81
2019-01-17T17:59:45.816Z,4.97
2019-01-17T18:02:25.858Z,4.99
2019-01-17T18:04:56.512Z,4.94
2019-01-17T18:07:27.246Z,4.85
2019-01-17T18:09:58.138Z,4.82
2019-01-17T18:12:30.280Z,4.73
2019-01-17T18:15:01.384Z,4.60
2019-01-17T18:17:32.576Z,4.64
2019-01-17T18:20:03.450Z,4.65
2019-01-17T18:22:34.125Z,4.61
2019-01-17T18:25:04.853Z,4.58
2019-01-17T18:27:35.857Z,4.64
2019-01-17T18:30:10.292Z,4.63
2019-01-17T18:32:41.070Z,4.68
2019-01-17T18:35:11.961Z,4.69
2019-01-17T18:37:44.031Z,4.68
2019-01-17T18:40:15.700Z,4.61
2019-01-17T18:42:46.455Z,4.63
2019-01-17T18:45:19.133Z,4.60
2019-01-17T18:47:50.101Z,4.59
2019-01-17T18:50:22.862Z,4.56
2019-01-17T18:52:54.267Z,4.56
2019-01-17T18:55:25.106Z,4.61
2019-01-17T18:57:55.811Z,4.67
2019-01-17T19:00:33.057Z,4.76
2019-01-17T19:03:04.325Z,4.86
2019-01-17T19:05:36.438Z,4.92
2019-01-17T19:08:07.105Z,4.95
2019-01-17T19:10:37.890Z,4.89
2019-01-17T19:13:08.695Z,4.97
2019-01-17T19:15:40.033Z,5.11
2019-01-17T19:18:10.954Z,5.17
2019-01-17T19:20:43.323Z,5.23
2019-01-17T19:23:34.055Z,5.34
2019-01-17T19:26:05.041Z,5.28
2019-01-17T19:28:36.173Z,5.26
2019-01-17T19:31:08.103Z,5.30
2019-01-17T19:33:40.982Z,5.34
2019-01-17T19:36:12.937Z,5.42
2019-01-17T19:38:44.116Z,5.45
2019-01-17T19:41:14.798Z,5.52
2019-01-17T19:43:45.430Z,5.61
2019-01-17T19:46:15.993Z,5.63
2019-01-17T19:48:47.718Z,5.70
2019-01-17T19:51:19.347Z,5.77
2019-01-17T19:53:49.940Z,5.89
2019-01-17T19:56:22.131Z,5.95
2019-01-17T19:58:52.786Z,6.06
2019-01-17T20:01:23.426Z,6.16
2019-01-17T20:03:54.941Z,6.29
2019-01-17T20:06:25.820Z,6.37
2019-01-17T20:08:56.526Z,6.42
2019-01-17T20:11:27.091Z,6.46
2019-01-17T20:13:58.903Z,6.49
2019-01-17T20:16:29.528Z,6.53
2019-01-17T20:19:00.315Z,6.51
2019-01-17T20:21:31.005Z,6.52
2019-01-17T20:24:03.543Z,6.59
2019-01-17T20:26:34.146Z,6.63
2019-01-17T20:29:24.659Z,6.63
2019-01-17T20:31:55.391Z,6.61
2019-01-17T20:34:26.137Z,6.59
2019-01-17T20:36:56.817Z,6.59
2019-01-17T20:39:27.740Z,6.66
2019-01-17T20:42:02.224Z,6.70
2019-01-17T20:44:34.584Z,6.70
2019-01-17T20:47:05.381Z,6.71
2019-01-17T20:49:37.160Z,6.74
2019-01-17T20:52:07.850Z,6.79
2019-01-17T20:54:38.937Z,6.82
2019-01-17T20:57:10.724Z,6.87
2019-01-17T20:59:41.608Z,6.87
2019-01-17T21:02:18.157Z,6.84
2019-01-17T21:04:50.078Z,6.89
2019-01-17T21:07:21.679Z,6.89
2019-01-17T21:09:52.391Z,6.83
2019-01-17T21:12:24.125Z,6.84
2019-01-17T21:14:56.295Z,6.82
2019-01-17T21:17:27.353Z,6.80
2019-01-17T21:19:58.063Z,6.83
2019-01-17T21:22:28.678Z,6.83
2019-01-17T21:24:59.246Z,6.84
2019-01-17T21:27:30.152Z,6.87
2019-01-17T21:30:00.815Z,6.87
2019-01-17T21:32:31.528Z,6.88
2019-01-17T21:35:02.230Z,6.92
2019-01-17T21:37:32.843Z,6.98
2019-01-17T21:40:03.628Z,6.90
2019-01-17T21:42:34.661Z,6.88
2019-01-17T21:45:06.060Z,6.91
2019-01-17T21:47:36.658Z,6.81
2019-01-17T21:50:10.950Z,6.84
2019-01-17T21:52:42.553Z,6.84
2019-01-17T21:55:14.895Z,6.81
2019-01-17T21:57:46.827Z,6.87
2019-01-17T22:00:24.962Z,6.88
2019-01-17T22:02:58.259Z,6.87
2019-01-17T22:05:29.719Z,6.84
2019-01-17T22:08:02.025Z,6.73
2019-01-17T22:10:32.732Z,6.68
2019-01-17T22:13:03.696Z,6.62
2019-01-17T22:15:34.380Z,6.55
2019-01-17T22:18:05.102Z,6.50
2019-01-17T22:20:35.974Z,6.46
2019-01-17T22:23:06.485Z,6.43
2019-01-17T22:25:37.100Z,6.34
2019-01-17T22:28:07.695Z,6.28
2019-01-17T22:30:38.545Z,6.20
2019-01-17T22:33:10.564Z,6.16
2019-01-17T22:35:41.523Z,6.18
2019-01-17T22:38:12.191Z,6.17
2019-01-17T22:40:44.500Z,6.17
2019-01-17T22:43:15.233Z,6.17
2019-01-17T22:45:45.684Z,6.22
2019-01-17T22:48:17.514Z,6.33
2019-01-17T22:50:48.216Z,6.38
2019-01-17T22:53:18.815Z,6.41
2019-01-17T22:55:51.084Z,6.45
2019-01-17T22:58:22.012Z,6.43
2019-01-17T23:01:15.678Z,6.41
2019-01-17T23:03:47.804Z,6.47
2019-01-17T23:06:19.536Z,6.51
2019-01-17T23:08:50.005Z,6.55
2019-01-17T23:11:22.335Z,6.49
2019-01-17T23:13:53.096Z,6.50
2019-01-17T23:16:23.692Z,6.49
2019-01-17T23:18:54.562Z,6.59
2019-01-17T23:21:26.483Z,6.62
2019-01-17T23:23:58.484Z,6.67
2019-01-17T23:26:29.225Z,6.69
2019-01-17T23:28:59.757Z,6.75
2019-01-17T23:31:30.216Z,6.85
2019-01-17T23:34:00.919Z,6.88
2019-01-17T23:36:32.515Z,6.95
2019-01-17T23:39:06.961Z,7.04
2019-01-17T23:41:37.576Z,7.09
2019-01-17T23:44:09.500Z,7.16
2019-01-17T23:46:43.773Z,7.23
2019-01-17T23:49:14.659Z,7.30
2019-01-17T23:51:46.708Z,7.33
2019-01-17T23:54:17.288Z,7.31
2019-01-17T23:56:47.780Z,7.28
2019-01-17T23:59:22.654Z,7.29
